createdAt,value
2022-11-02T00:00:43.205Z,96.83
2022-11-02T00:01:46.236Z,95.75
2022-11-02T00:02:49.003Z,95.59
2022-11-02T00:03:51.821Z,96.13
2022-11-02T00:04:54.796Z,95.41
2022-11-02T00:05:57.667Z,95.87
2022-11-02T00:07:00.445Z,95.24
2022-11-02T00:08:03.013Z,95.42
2022-11-02T00:09:05.991Z,95.11
2022-11-02T00:10:08.863Z,95.11
2022-11-02T00:11:11.734Z,96.22
2022-11-02T00:12:14.509Z,96.69
2022-11-02T00:13:17.389Z,96.08
2022-11-02T00:14:20.173Z,96.86
2022-11-02T00:15:23.133Z,94.71
2022-11-02T00:16:26.214Z,95.37
2022-11-02T00:17:29.291Z,96.31
2022-11-02T00:18:32.272Z,95.39
2022-11-02T00:19:35.347Z,95.23
2022-11-02T00:20:38.427Z,96.11
2022-11-02T00:21:41.824Z,95.41
2022-11-02T00:22:45.195Z,95.90
2022-11-02T00:23:48.282Z,94.97
2022-11-02T00:24:51.362Z,95.37
2022-11-02T00:25:54.750Z,95.60
2022-11-02T00:26:57.830Z,94.17
2022-11-02T00:28:00.597Z,94.35
2022-11-02T00:29:03.667Z,94.58
2022-11-02T00:30:06.444Z,94.20
2022-11-02T00:31:09.317Z,96.15
2022-11-02T00:32:12.093Z,94.47
2022-11-02T00:33:15.180Z,94.46
2022-11-02T00:34:17.959Z,95.48
2022-11-02T00:35:21.029Z,96.24
2022-11-02T00:36:24.004Z,95.79
2022-11-02T00:37:27.256Z,95.31
2022-11-02T00:38:30.169Z,94.59
2022-11-02T00:39:32.742Z,95.39
2022-11-02T00:40:35.502Z,95.08
2022-11-02T00:41:38.492Z,92.48
2022-11-02T00:42:41.466Z,93.02
2022-11-02T00:43:44.238Z,94.58
2022-11-02T00:44:47.100Z,93.35
2022-11-02T00:45:50.182Z,93.62
2022-11-02T00:46:53.290Z,94.61
2022-11-02T00:47:55.941Z,93.44
2022-11-02T00:48:59.422Z,93.34
2022-11-02T00:50:02.400Z,93.86
2022-11-02T00:51:05.574Z,92.85
2022-11-02T00:52:08.251Z,94.95
2022-11-02T00:53:11.121Z,94.43
2022-11-02T00:54:13.909Z,94.06
2022-11-02T00:55:16.971Z,94.04
2022-11-02T00:56:20.065Z,92.59
2022-11-02T00:57:23.237Z,93.84
2022-11-02T00:58:26.207Z,93.73
2022-11-02T00:59:29.293Z,94.68
2022-11-02T01:00:32.186Z,94.09
2022-11-02T01:01:35.516Z,94.36
2022-11-02T01:02:38.552Z,95.26
2022-11-02T01:03:41.614Z,94.32
2022-11-02T01:04:44.683Z,94.23
2022-11-02T01:05:47.665Z,95.06
2022-11-02T01:06:50.741Z,93.87
2022-11-02T01:07:53.922Z,94.06
2022-11-02T01:08:56.591Z,93.72
2022-11-02T01:09:59.670Z,94.39
2022-11-02T01:11:02.759Z,94.12
2022-11-02T01:12:05.528Z,92.61
2022-11-02T01:13:08.507Z,93.10
2022-11-02T01:14:11.687Z,94.12
2022-11-02T01:15:14.379Z,93.69
2022-11-02T01:16:17.237Z,93.47
2022-11-02T01:17:20.105Z,93.50
2022-11-02T01:18:23.392Z,93.19
2022-11-02T01:19:26.576Z,92.62
2022-11-02T01:20:29.748Z,93.79
2022-11-02T01:21:33.109Z,93.15
2022-11-02T01:22:36.320Z,92.89
2022-11-02T01:23:39.202Z,93.63
2022-11-02T01:24:41.973Z,92.89
2022-11-02T01:25:45.153Z,93.50
2022-11-02T01:26:48.027Z,93.89
2022-11-02T01:27:50.691Z,93.09
2022-11-02T01:28:53.986Z,92.98
2022-11-02T01:29:58.391Z,92.99
2022-11-02T01:31:01.164Z,94.79
2022-11-02T01:32:04.337Z,93.31
2022-11-02T01:33:07.520Z,94.60
2022-11-02T01:34:10.299Z,94.46
2022-11-02T01:35:13.180Z,94.02
2022-11-02T01:36:19.078Z,94.13
2022-11-02T01:37:22.096Z,94.18
2022-11-02T01:38:24.968Z,93.80
2022-11-02T01:39:28.263Z,93.07
2022-11-02T01:40:31.442Z,92.52
2022-11-02T01:41:34.416Z,92.33
2022-11-02T01:42:37.593Z,92.02
2022-11-02T01:43:40.774Z,92.00
2022-11-02T01:44:43.963Z,91.91
2022-11-02T01:45:47.140Z,92.37
2022-11-02T01:46:50.216Z,92.97
2022-11-02T01:47:53.405Z,93.69
2022-11-02T01:48:56.691Z,93.42
2022-11-02T01:50:00.179Z,93.43
2022-11-02T01:51:03.256Z,93.53
2022-11-02T01:52:06.753Z,93.41
2022-11-02T01:53:09.717Z,93.69
2022-11-02T01:54:12.808Z,94.97
2022-11-02T01:55:15.887Z,95.31
2022-11-02T01:56:18.948Z,93.50
2022-11-02T01:57:22.245Z,93.63
2022-11-02T01:58:25.839Z,93.42
2022-11-02T01:59:28.911Z,92.95
2022-11-02T02:00:32.002Z,92.51
2022-11-02T02:01:35.078Z,93.10
2022-11-02T02:02:38.111Z,92.96
2022-11-02T02:03:41.234Z,91.04
2022-11-02T02:04:44.116Z,91.20
2022-11-02T02:05:46.878Z,91.67
2022-11-02T02:06:49.756Z,92.35
2022-11-02T02:07:52.436Z,91.62
2022-11-02T02:08:55.405Z,92.57
2022-11-02T02:09:58.281Z,91.93
2022-11-02T02:11:01.149Z,91.69
2022-11-02T02:12:04.336Z,91.87
2022-11-02T02:13:07.316Z,91.01
2022-11-02T02:14:10.188Z,92.50
2022-11-02T02:15:13.164Z,91.43
2022-11-02T02:16:16.052Z,91.99
2022-11-02T02:17:18.907Z,91.42
2022-11-02T02:18:21.688Z,92.98
2022-11-02T02:19:25.289Z,91.54
2022-11-02T02:20:27.840Z,91.97
2022-11-02T02:21:30.609Z,91.82
2022-11-02T02:22:33.384Z,90.68
2022-11-02T02:23:36.173Z,90.99
2022-11-02T02:24:38.719Z,91.74
2022-11-02T02:25:41.292Z,91.39
2022-11-02T02:26:43.859Z,91.65
2022-11-02T02:27:46.736Z,91.31
2022-11-02T02:28:49.905Z,92.02
2022-11-02T02:29:52.703Z,92.84
2022-11-02T02:30:55.567Z,94.24
2022-11-02T02:31:58.339Z,92.08
2022-11-02T02:33:01.019Z,90.67
2022-11-02T02:34:04.091Z,89.94
2022-11-02T02:35:06.953Z,91.20
2022-11-02T02:36:09.936Z,91.67
2022-11-02T02:37:12.918Z,92.49
2022-11-02T02:38:15.682Z,93.01
2022-11-02T02:39:18.561Z,93.44
2022-11-02T02:40:21.436Z,93.12
2022-11-02T02:41:24.314Z,93.07
2022-11-02T02:42:27.188Z,94.87
2022-11-02T02:43:30.063Z,94.09
2022-11-02T02:44:33.134Z,93.78
2022-11-02T02:45:36.213Z,93.90
2022-11-02T02:46:41.937Z,93.70
2022-11-02T02:47:43.803Z,94.07
2022-11-02T02:48:46.784Z,93.98
2022-11-02T02:49:49.865Z,94.14
2022-11-02T02:50:54.074Z,95.18
2022-11-02T02:51:57.457Z,94.36
2022-11-02T02:53:00.237Z,94.77
2022-11-02T02:54:03.406Z,94.57
2022-11-02T02:55:07.431Z,94.95
2022-11-02T02:56:10.193Z,94.65
2022-11-02T02:57:19.458Z,94.13
2022-11-02T02:58:22.706Z,94.32
2022-11-02T02:59:25.467Z,91.72
2022-11-02T03:00:28.334Z,90.73
2022-11-02T03:01:31.329Z,91.42
2022-11-02T03:02:34.351Z,91.29
2022-11-02T03:03:37.413Z,91.42
2022-11-02T03:04:40.453Z,92.14
2022-11-02T03:05:43.329Z,91.49
2022-11-02T03:06:46.407Z,91.28
2022-11-02T03:07:49.482Z,92.31
2022-11-02T03:08:52.474Z,91.90
2022-11-02T03:09:55.542Z,90.76
2022-11-02T03:10:58.420Z,90.60
2022-11-02T03:12:01.413Z,91.56
2022-11-02T03:13:04.369Z,91.41
2022-11-02T03:14:07.246Z,92.40
2022-11-02T03:15:10.327Z,93.06
2022-11-02T03:16:13.004Z,93.78
2022-11-02T03:17:15.875Z,93.25
2022-11-02T03:18:18.847Z,93.73
2022-11-02T03:19:21.829Z,93.92
2022-11-02T03:20:25.114Z,93.61
2022-11-02T03:21:28.091Z,94.08
2022-11-02T03:22:31.067Z,93.82
2022-11-02T03:23:34.140Z,93.50
2022-11-02T03:24:37.126Z,94.27
2022-11-02T03:25:40.098Z,93.71
2022-11-02T03:26:43.175Z,93.29
2022-11-02T03:27:46.467Z,92.75
2022-11-02T03:28:49.243Z,94.34
2022-11-02T03:29:52.116Z,92.30
2022-11-02T03:30:55.083Z,93.30
2022-11-02T03:31:58.574Z,93.66
2022-11-02T03:33:01.579Z,93.55
2022-11-02T03:34:04.898Z,92.94
2022-11-02T03:35:08.231Z,93.75
2022-11-02T03:36:11.099Z,94.69
2022-11-02T03:37:13.987Z,94.70
2022-11-02T03:38:16.842Z,94.38
2022-11-02T03:39:20.134Z,94.67
2022-11-02T03:40:23.431Z,95.07
2022-11-02T03:41:26.394Z,94.48
2022-11-02T03:42:29.580Z,95.48
2022-11-02T03:43:32.568Z,94.91
2022-11-02T03:44:35.837Z,94.63
2022-11-02T03:45:38.920Z,94.27
2022-11-02T03:46:42.402Z,94.92
2022-11-02T03:47:45.588Z,93.49
2022-11-02T03:48:48.976Z,92.52
2022-11-02T03:49:52.055Z,91.90
2022-11-02T03:50:55.439Z,92.26
2022-11-02T03:51:58.214Z,90.64
2022-11-02T03:53:01.083Z,91.29
2022-11-02T03:54:04.264Z,91.69
2022-11-02T03:55:07.857Z,90.96
2022-11-02T03:56:10.628Z,90.99
2022-11-02T03:57:13.508Z,91.92
2022-11-02T03:58:16.684Z,92.49
2022-11-02T03:59:19.359Z,91.68
2022-11-02T04:00:22.342Z,92.57
2022-11-02T04:01:25.621Z,93.22
2022-11-02T04:02:28.892Z,92.51
2022-11-02T04:03:33.209Z,93.58
2022-11-02T04:04:35.876Z,93.96
2022-11-02T04:05:38.748Z,92.89
2022-11-02T04:06:41.849Z,92.52
2022-11-02T04:07:48.252Z,94.33
2022-11-02T04:08:49.427Z,93.77
2022-11-02T04:09:52.506Z,94.03
2022-11-02T04:10:56.191Z,93.60
2022-11-02T04:12:02.553Z,93.55
2022-11-02T04:13:05.425Z,93.27
2022-11-02T04:14:09.540Z,92.97
2022-11-02T04:15:12.528Z,92.57
2022-11-02T04:16:15.171Z,93.71
2022-11-02T04:17:17.936Z,93.65
2022-11-02T04:18:20.742Z,94.42
2022-11-02T04:19:24.439Z,94.81
2022-11-02T04:20:27.810Z,94.55
2022-11-02T04:21:30.991Z,94.05
2022-11-02T04:22:33.867Z,93.95
2022-11-02T04:23:36.733Z,93.58
2022-11-02T04:24:40.029Z,90.48
2022-11-02T04:25:42.988Z,91.18
2022-11-02T04:26:45.995Z,92.71
2022-11-02T04:27:48.749Z,93.73
2022-11-02T04:28:51.830Z,92.26
2022-11-02T04:29:55.315Z,91.34
2022-11-02T04:30:58.612Z,91.81
2022-11-02T04:32:01.885Z,91.40
2022-11-02T04:33:04.660Z,91.96
2022-11-02T04:34:07.736Z,91.79
2022-11-02T04:35:10.723Z,92.25
2022-11-02T04:36:14.410Z,94.29
2022-11-02T04:37:17.388Z,92.91
2022-11-02T04:38:20.161Z,91.57
2022-11-02T04:39:23.863Z,91.90
2022-11-02T04:40:27.450Z,92.80
2022-11-02T04:41:31.318Z,92.20
2022-11-02T04:42:34.428Z,93.37
2022-11-02T04:43:37.096Z,92.80
2022-11-02T04:44:39.965Z,93.68
2022-11-02T04:45:42.948Z,92.73
2022-11-02T04:46:45.812Z,93.74
2022-11-02T04:47:48.589Z,93.47
2022-11-02T04:48:51.484Z,93.76
2022-11-02T04:49:54.135Z,93.89
2022-11-02T04:50:57.324Z,93.97
2022-11-02T04:52:00.298Z,93.74
2022-11-02T04:53:03.988Z,94.17
2022-11-02T04:54:06.783Z,94.93
2022-11-02T04:55:09.840Z,94.65
2022-11-02T04:56:13.242Z,94.59
2022-11-02T04:57:16.106Z,94.78
2022-11-02T04:58:19.093Z,95.23
2022-11-02T04:59:22.057Z,94.42
2022-11-02T05:00:25.260Z,94.15
2022-11-02T05:01:28.790Z,94.81
2022-11-02T05:02:31.849Z,93.41
2022-11-02T05:03:34.577Z,94.03
2022-11-02T05:04:37.658Z,93.54
2022-11-02T05:05:40.760Z,94.46
2022-11-02T05:06:44.125Z,93.79
2022-11-02T05:07:47.622Z,93.27
2022-11-02T05:08:51.221Z,93.13
2022-11-02T05:09:54.282Z,92.91
2022-11-02T05:10:57.586Z,93.55
2022-11-02T05:12:00.448Z,92.71
2022-11-02T05:13:03.415Z,92.90
2022-11-02T05:14:08.836Z,93.15
2022-11-02T05:15:11.726Z,91.93
2022-11-02T05:16:15.229Z,92.11
2022-11-02T05:17:18.394Z,92.22
2022-11-02T05:19:24.661Z,91.52
2022-11-02T05:20:27.441Z,92.65
2022-11-02T05:21:30.739Z,92.37
2022-11-02T05:22:34.008Z,92.40
2022-11-02T05:23:37.392Z,92.31
2022-11-02T05:24:40.161Z,93.26
2022-11-02T05:25:43.134Z,92.97
2022-11-02T05:26:51.177Z,93.23
2022-11-02T05:27:51.448Z,92.86
2022-11-02T05:28:54.634Z,93.29
2022-11-02T05:29:58.334Z,93.63
2022-11-02T05:31:02.367Z,93.98
2022-11-02T05:32:05.506Z,94.20
2022-11-02T05:33:08.785Z,94.17
2022-11-02T05:34:11.463Z,94.41
2022-11-02T05:35:14.742Z,93.69
2022-11-02T05:36:17.622Z,93.63
2022-11-02T05:37:20.385Z,94.46
2022-11-02T05:38:23.514Z,94.24
2022-11-02T05:39:26.548Z,93.58
2022-11-02T05:40:29.536Z,93.54
2022-11-02T05:41:32.711Z,92.48
2022-11-02T05:42:36.828Z,92.84
2022-11-02T05:43:40.108Z,92.70
2022-11-02T05:44:43.268Z,92.49
2022-11-02T05:45:46.893Z,92.65
2022-11-02T05:46:50.614Z,92.66
2022-11-02T05:47:54.389Z,92.60
2022-11-02T05:48:58.400Z,93.18
2022-11-02T05:50:01.360Z,93.50
2022-11-02T05:51:04.644Z,93.85
2022-11-02T05:52:07.815Z,93.29
2022-11-02T05:53:10.981Z,92.62
2022-11-02T05:54:14.299Z,93.39
2022-11-02T05:55:17.766Z,92.89
2022-11-02T05:56:25.347Z,92.75
2022-11-02T05:57:29.253Z,93.35
2022-11-02T05:58:32.455Z,93.97
2022-11-02T05:59:35.932Z,93.07
2022-11-02T06:00:42.129Z,91.87
2022-11-02T06:01:45.250Z,92.40
2022-11-02T06:02:48.532Z,92.71
2022-11-02T06:03:53.946Z,92.72
2022-11-02T06:04:57.415Z,92.70
2022-11-02T06:06:00.748Z,93.00
2022-11-02T06:07:04.129Z,92.74
2022-11-02T06:08:07.213Z,92.65
2022-11-02T06:09:09.983Z,93.09
2022-11-02T06:10:12.965Z,93.10
2022-11-02T06:11:15.935Z,92.85
2022-11-02T06:12:19.012Z,93.60
2022-11-02T06:13:22.189Z,93.73
2022-11-02T06:14:25.290Z,93.61
2022-11-02T06:15:28.877Z,94.38
2022-11-02T06:16:37.109Z,94.51
2022-11-02T06:17:40.346Z,94.99
2022-11-02T06:18:43.323Z,94.66
2022-11-02T06:19:46.720Z,94.92
2022-11-02T06:20:50.650Z,95.33
2022-11-02T06:21:53.996Z,95.05
2022-11-02T06:22:57.493Z,95.17
2022-11-02T06:24:12.172Z,95.45
2022-11-02T06:26:38.203Z,96.64
2022-11-02T06:27:45.939Z,96.78
2022-11-02T06:28:49.778Z,96.57
2022-11-02T06:29:52.625Z,97.17
2022-11-02T06:32:21.266Z,95.91
2022-11-02T06:33:26.579Z,95.51
2022-11-02T06:34:31.367Z,95.50
2022-11-02T06:35:34.257Z,95.58
2022-11-02T06:36:39.427Z,95.33
2022-11-02T06:37:42.848Z,95.67
2022-11-02T06:38:53.818Z,94.45
2022-11-02T06:39:57.252Z,93.91
2022-11-02T06:41:00.394Z,92.22
2022-11-02T06:42:03.779Z,93.14
2022-11-02T06:43:17.377Z,93.18
2022-11-02T06:44:33.491Z,93.15
2022-11-02T06:45:36.668Z,93.03
2022-11-02T06:46:44.777Z,93.13
2022-11-02T06:47:47.946Z,93.62
2022-11-02T06:48:54.178Z,93.78
2022-11-02T06:50:00.225Z,94.49
2022-11-02T06:51:02.947Z,94.43
2022-11-02T06:52:06.110Z,94.94
2022-11-02T06:53:10.113Z,95.05
2022-11-02T06:54:13.082Z,95.43
2022-11-02T06:55:16.881Z,95.76
2022-11-02T06:56:20.066Z,95.94
2022-11-02T07:00:06.940Z,96.88
2022-11-02T07:01:10.864Z,97.44
2022-11-02T07:02:20.986Z,97.65
2022-11-02T07:03:24.634Z,97.66
2022-11-02T07:04:29.415Z,97.79
2022-11-02T07:05:33.735Z,98.32
2022-11-02T07:06:37.331Z,97.68
2022-11-02T07:07:43.173Z,98.13
2022-11-02T07:08:47.262Z,98.32
2022-11-02T07:09:51.071Z,98.42
2022-11-02T07:10:55.283Z,98.11
2022-11-02T07:11:59.192Z,98.14
2022-11-02T07:13:07.898Z,98.26
2022-11-02T07:14:16.054Z,98.31
2022-11-02T07:15:19.586Z,97.63
2022-11-02T07:16:23.885Z,97.71
2022-11-02T07:17:32.160Z,97.48
2022-11-02T07:18:32.818Z,97.33
2022-11-02T07:19:35.987Z,97.65
2022-11-02T07:20:40.097Z,97.60
2022-11-02T07:21:46.604Z,97.36
2022-11-02T07:22:48.305Z,97.58
2022-11-02T07:23:58.560Z,97.57
2022-11-02T07:25:02.550Z,98.05
2022-11-02T07:26:07.221Z,98.42
2022-11-02T07:27:10.355Z,98.80
2022-11-02T07:28:13.101Z,99.35
2022-11-02T07:29:17.120Z,99.59
2022-11-02T07:30:19.996Z,99.52
2022-11-02T07:31:23.700Z,99.90
2022-11-02T07:32:27.083Z,100.00
2022-11-02T07:33:29.739Z,100.00
2022-11-02T07:34:32.725Z,99.83
2022-11-02T07:35:41.671Z,99.88
2022-11-02T07:36:45.763Z,99.29
2022-11-02T07:37:48.925Z,98.28
2022-11-02T07:38:52.102Z,98.41
2022-11-02T07:39:57.680Z,98.72
2022-11-02T07:41:08.599Z,98.40
2022-11-02T07:42:14.629Z,98.70
2022-11-02T07:43:18.343Z,98.43
2022-11-02T07:44:23.089Z,99.20
2022-11-02T07:45:26.964Z,99.06
2022-11-02T07:46:37.936Z,98.75
2022-11-02T07:47:44.074Z,99.19
2022-11-02T07:48:47.860Z,99.30
2022-11-02T07:51:12.363Z,99.59
2022-11-02T07:52:18.243Z,99.92
2022-11-02T07:53:21.209Z,99.91
2022-11-02T07:54:24.781Z,99.71
2022-11-02T07:55:28.155Z,99.82
2022-11-02T07:56:32.052Z,99.74
2022-11-02T07:57:35.901Z,99.95
2022-11-02T07:58:43.758Z,99.83
2022-11-02T07:59:50.510Z,99.99
2022-11-02T08:00:59.624Z,100.00
2022-11-02T08:02:00.080Z,100.00
2022-11-02T08:03:08.635Z,100.00
2022-11-02T08:04:13.036Z,100.00
2022-11-02T08:05:22.091Z,100.00
2022-11-02T08:06:25.163Z,100.00
2022-11-02T08:07:30.929Z,100.00
2022-11-02T08:08:35.625Z,100.00
2022-11-02T08:09:39.331Z,100.00
2022-11-02T08:10:45.981Z,100.00
2022-11-02T08:11:51.727Z,100.00
2022-11-02T08:14:17.572Z,100.00
2022-11-02T08:15:34.670Z,100.00
2022-11-02T08:16:49.199Z,100.00
2022-11-02T08:17:52.899Z,100.00
2022-11-02T08:19:00.884Z,100.00
2022-11-02T08:21:39.714Z,100.00
2022-11-02T08:24:07.105Z,100.00
2022-11-02T08:26:26.567Z,100.00
2022-11-02T08:27:35.354Z,100.00
2022-11-02T08:31:19.778Z,100.00
2022-11-02T08:32:31.640Z,100.00
2022-11-02T08:33:35.530Z,100.00
2022-11-02T08:34:46.800Z,100.00
2022-11-02T08:37:22.541Z,100.00
2022-11-02T08:39:46.537Z,100.00
2022-11-02T08:42:11.831Z,100.00
2022-11-02T08:43:23.232Z,100.00
2022-11-02T08:44:37.681Z,100.00
2022-11-02T08:49:42.488Z,100.00
2022-11-02T08:56:22.106Z,100.00
2022-11-02T08:57:26.485Z,100.00
2022-11-02T08:58:32.066Z,100.00
2022-11-02T08:59:38.892Z,100.00
2022-11-02T09:02:07.705Z,100.00
2022-11-02T09:12:54.439Z,100.00
2022-11-02T09:14:12.154Z,100.00
2022-11-02T09:16:43.949Z,100.00
2022-11-02T09:17:52.585Z,100.00
2022-11-02T09:19:06.747Z,100.00
2022-11-02T09:21:40.154Z,100.00
2022-11-02T09:24:06.400Z,100.00
2022-11-02T09:25:21.650Z,100.00
2022-11-02T09:27:58.914Z,100.00
2022-11-02T09:29:03.300Z,100.00
2022-11-02T09:30:23.721Z,100.00
2022-11-02T09:35:18.202Z,100.00
2022-11-02T09:40:29.541Z,100.00
2022-11-02T09:43:04.354Z,100.00
2022-11-02T09:45:29.722Z,100.00
2022-11-02T09:46:32.492Z,100.00
2022-11-02T09:48:57.039Z,100.00
2022-11-02T09:50:17.998Z,100.00
2022-11-02T09:51:28.369Z,100.00
2022-11-02T09:52:48.645Z,100.00
2022-11-02T09:53:57.395Z,100.00
2022-11-02T09:55:06.507Z,100.00
2022-11-02T09:56:12.962Z,100.00
2022-11-02T09:57:32.540Z,100.00
2022-11-02T10:00:09.869Z,100.00
2022-11-02T10:02:42.460Z,100.00
2022-11-02T10:03:54.759Z,100.00
2022-11-02T10:05:01.980Z,100.00
2022-11-02T10:06:14.030Z,100.00
2022-11-02T10:07:18.216Z,100.00
2022-11-02T10:08:21.495Z,100.00
2022-11-02T10:09:38.005Z,100.00
2022-11-02T10:12:04.209Z,100.00
2022-11-02T10:13:08.695Z,100.00
2022-11-02T10:15:37.061Z,100.00
2022-11-02T10:16:57.155Z,100.00
2022-11-02T10:22:03.863Z,100.00
2022-11-02T10:23:17.614Z,100.00
2022-11-02T10:25:48.714Z,100.00
2022-11-02T10:27:11.542Z,100.00
2022-11-02T10:32:17.343Z,100.00
2022-11-02T10:33:28.431Z,100.00
2022-11-02T10:34:37.664Z,100.00
2022-11-02T10:36:04.290Z,100.00
2022-11-02T10:45:03.416Z,100.00
2022-11-02T10:46:12.104Z,100.00
2022-11-02T10:51:22.192Z,100.00
2022-11-02T10:52:25.580Z,100.00
2022-11-02T10:53:42.109Z,100.00
2022-11-02T10:56:15.030Z,100.00
2022-11-02T10:58:43.033Z,100.00
2022-11-02T11:02:34.550Z,100.00
2022-11-02T11:06:29.226Z,100.00
2022-11-02T11:10:21.303Z,100.00
2022-11-02T11:11:24.794Z,100.00
2022-11-02T11:16:19.630Z,100.00
2022-11-02T11:20:38.866Z,100.00
2022-11-02T11:25:54.375Z,100.00
2022-11-02T11:27:03.814Z,100.00
2022-11-02T11:28:07.326Z,100.00
2022-11-02T11:29:11.093Z,100.00
2022-11-02T11:30:46.308Z,100.00
2022-11-02T11:31:36.456Z,100.00
2022-11-02T11:34:10.249Z,100.00
2022-11-02T11:35:16.162Z,100.00
2022-11-02T11:36:30.503Z,100.00
2022-11-02T11:40:21.575Z,100.00
2022-11-02T11:41:28.992Z,100.00
2022-11-02T11:42:35.223Z,100.00
2022-11-02T11:43:43.812Z,100.00
2022-11-02T11:46:11.849Z,100.00
2022-11-02T11:47:22.689Z,100.00
2022-11-02T11:48:37.020Z,100.00
2022-11-02T11:51:08.838Z,100.00
2022-11-02T11:54:57.986Z,100.00
2022-11-02T11:57:26.393Z,100.00
2022-11-02T11:58:33.476Z,100.00
2022-11-02T11:59:36.009Z,100.00
2022-11-02T12:00:39.982Z,100.00
2022-11-02T12:03:06.991Z,100.00
2022-11-02T12:04:10.165Z,100.00
2022-11-02T12:05:32.280Z,100.00
2022-11-02T12:07:57.108Z,100.00
2022-11-02T12:09:05.438Z,100.00
2022-11-02T12:11:28.523Z,100.00
2022-11-02T12:12:31.369Z,100.00
2022-11-02T12:13:36.877Z,100.00
2022-11-02T12:16:00.241Z,100.00
2022-11-02T12:17:02.935Z,100.00
2022-11-02T12:18:10.063Z,100.00
2022-11-02T12:20:43.237Z,100.00
2022-11-02T12:21:45.745Z,100.00
2022-11-02T12:22:48.891Z,100.00
2022-11-02T12:23:58.317Z,100.00
2022-11-02T12:25:02.350Z,100.00
2022-11-02T12:28:56.535Z,100.00
2022-11-02T12:31:25.064Z,100.00
2022-11-02T12:32:27.514Z,100.00
2022-11-02T12:33:31.124Z,100.00
2022-11-02T12:34:33.859Z,100.00
2022-11-02T12:35:45.920Z,100.00
2022-11-02T12:37:31.280Z,100.00
2022-11-02T12:37:58.653Z,100.00
2022-11-02T12:41:30.082Z,100.00
2022-11-02T12:43:54.200Z,100.00
2022-11-02T12:45:01.761Z,100.00
2022-11-02T12:47:24.843Z,100.00
2022-11-02T12:48:37.068Z,100.00
2022-11-02T12:49:39.990Z,100.00
2022-11-02T12:50:42.814Z,100.00
2022-11-02T12:51:49.045Z,100.00
2022-11-02T12:54:12.589Z,100.00
2022-11-02T12:55:17.392Z,100.00
2022-11-02T12:56:27.778Z,100.00
2022-11-02T13:00:13.008Z,100.00
2022-11-02T13:01:21.851Z,100.00
2022-11-02T13:02:28.887Z,100.00
2022-11-02T13:03:49.136Z,100.00
2022-11-02T13:04:51.458Z,100.00
2022-11-02T13:05:53.855Z,100.00
2022-11-02T13:06:56.746Z,100.00
2022-11-02T13:07:59.704Z,100.00
2022-11-02T13:09:02.397Z,100.00
2022-11-02T13:11:36.979Z,100.00
2022-11-02T13:12:39.446Z,100.00
2022-11-02T13:13:47.438Z,100.00
2022-11-02T13:14:49.940Z,100.00
2022-11-02T13:15:52.287Z,100.00
2022-11-02T13:16:55.575Z,100.00
2022-11-02T13:20:46.573Z,100.00
2022-11-02T13:21:49.032Z,100.00
2022-11-02T13:26:57.654Z,100.00
2022-11-02T13:28:02.663Z,100.00
2022-11-02T13:29:12.691Z,100.00
2022-11-02T13:30:16.881Z,100.00
2022-11-02T13:31:19.575Z,100.00
2022-11-02T13:33:46.936Z,100.00
2022-11-02T13:36:18.867Z,100.00
2022-11-02T13:38:42.927Z,100.00
2022-11-02T13:41:06.053Z,100.00
2022-11-02T13:42:14.050Z,100.00
2022-11-02T13:43:20.579Z,100.00
2022-11-02T13:44:23.140Z,100.00
2022-11-02T13:45:26.747Z,100.00
2022-11-02T13:46:30.849Z,100.00
2022-11-02T13:47:35.231Z,100.00
2022-11-02T13:48:37.946Z,100.00
2022-11-02T13:49:42.171Z,100.00
2022-11-02T13:50:55.346Z,100.00
2022-11-02T13:52:12.226Z,100.00
2022-11-02T13:53:13.587Z,100.00
2022-11-02T13:54:16.409Z,100.00
2022-11-02T13:55:19.212Z,100.00
2022-11-02T13:56:23.453Z,100.00
2022-11-02T13:57:31.182Z,100.00
2022-11-02T13:58:45.419Z,100.00
2022-11-02T13:59:48.153Z,100.00
2022-11-02T14:01:00.115Z,100.00
2022-11-02T14:02:07.508Z,100.00
2022-11-02T14:03:10.494Z,100.00
2022-11-02T14:04:24.669Z,100.00
2022-11-02T14:05:37.685Z,100.00
2022-11-02T14:08:03.060Z,100.00
2022-11-02T14:09:06.254Z,100.00
2022-11-02T14:10:09.401Z,100.00
2022-11-02T14:11:13.326Z,100.00
2022-11-02T14:12:16.121Z,100.00
2022-11-02T14:13:23.305Z,100.00
2022-11-02T14:14:25.763Z,100.00
2022-11-02T14:16:59.848Z,100.00
2022-11-02T14:19:22.911Z,100.00
2022-11-02T14:21:55.846Z,100.00
2022-11-02T14:22:58.647Z,100.00
2022-11-02T14:24:01.434Z,100.00
2022-11-02T14:25:06.843Z,100.00
2022-11-02T14:27:31.775Z,100.00
2022-11-02T14:28:40.479Z,100.00
2022-11-02T14:29:43.201Z,100.00
2022-11-02T14:30:47.977Z,100.00
2022-11-02T14:31:50.736Z,100.00
2022-11-02T14:34:14.184Z,100.00
2022-11-02T14:35:34.951Z,100.00
2022-11-02T14:36:42.083Z,100.00
2022-11-02T14:37:45.191Z,100.00
2022-11-02T14:38:49.264Z,100.00
2022-11-02T14:39:55.340Z,100.00
2022-11-02T14:43:41.445Z,100.00
2022-11-02T14:44:53.837Z,100.00
2022-11-02T14:47:21.015Z,100.00
2022-11-02T14:48:26.145Z,100.00
2022-11-02T14:49:28.971Z,100.00
2022-11-02T14:51:53.042Z,100.00
2022-11-02T14:52:55.723Z,100.00
2022-11-02T14:54:03.804Z,100.00
2022-11-02T14:55:16.485Z,100.00
2022-11-02T14:56:19.082Z,100.00
2022-11-02T14:57:28.363Z,100.00
2022-11-02T14:58:36.569Z,100.00
2022-11-02T15:01:01.553Z,100.00
2022-11-02T15:02:13.475Z,100.00
2022-11-02T15:06:03.455Z,100.00
2022-11-02T15:09:53.666Z,100.00
2022-11-02T15:10:56.363Z,100.00
2022-11-02T15:11:59.054Z,100.00
2022-11-02T15:13:05.323Z,100.00
2022-11-02T15:14:09.730Z,100.00
2022-11-02T15:15:13.953Z,100.00
2022-11-02T15:16:18.390Z,100.00
2022-11-02T15:17:26.439Z,100.00
2022-11-02T15:19:52.565Z,100.00
2022-11-02T15:23:43.431Z,100.00
2022-11-02T15:24:52.841Z,100.00
2022-11-02T15:26:00.252Z,100.00
2022-11-02T15:27:12.469Z,100.00
2022-11-02T15:32:23.006Z,100.00
2022-11-02T15:34:48.940Z,100.00
2022-11-02T15:36:01.018Z,100.00
2022-11-02T15:37:03.745Z,100.00
2022-11-02T15:38:20.869Z,100.00
2022-11-02T15:39:22.886Z,100.00
2022-11-02T15:40:25.431Z,100.00
2022-11-02T15:41:28.102Z,100.00
2022-11-02T15:44:57.186Z,100.00
2022-11-02T15:46:08.174Z,100.00
2022-11-02T15:48:36.459Z,100.00
2022-11-02T15:53:45.839Z,100.00
2022-11-02T15:56:10.000Z,100.00
2022-11-02T15:57:14.605Z,100.00
2022-11-02T15:58:26.697Z,100.00
2022-11-02T15:59:29.289Z,100.00
2022-11-02T16:03:23.526Z,100.00
2022-11-02T16:04:32.647Z,100.00
2022-11-02T16:05:36.532Z,100.00
2022-11-02T16:06:43.783Z,100.00
2022-11-02T16:08:05.411Z,100.00
2022-11-02T16:08:51.991Z,100.00
2022-11-02T16:11:15.891Z,100.00
2022-11-02T16:12:20.303Z,100.00
2022-11-02T16:16:04.185Z,100.00
2022-11-02T16:18:28.032Z,100.00
2022-11-02T16:21:01.443Z,100.00
2022-11-02T16:22:04.133Z,100.00
2022-11-02T16:23:07.149Z,100.00
2022-11-02T16:24:09.843Z,100.00
2022-11-02T16:26:38.809Z,100.00
2022-11-02T16:27:48.722Z,100.00
2022-11-02T16:30:11.629Z,100.00
2022-11-02T16:31:18.849Z,100.00
2022-11-02T16:32:19.947Z,100.00
2022-11-02T16:33:22.726Z,100.00
2022-11-02T16:34:25.142Z,100.00
2022-11-02T16:35:30.417Z,100.00
2022-11-02T16:36:32.874Z,100.00
2022-11-02T16:37:37.267Z,100.00
2022-11-02T16:41:32.806Z,100.00
2022-11-02T16:42:35.272Z,100.00
2022-11-02T16:43:40.468Z,100.00
2022-11-02T16:44:58.919Z,100.00
2022-11-02T16:47:25.047Z,100.00
2022-11-02T16:51:13.510Z,100.00
2022-11-02T16:52:12.926Z,100.00
2022-11-02T16:54:53.038Z,100.00
2022-11-02T16:57:21.138Z,100.00
2022-11-02T16:58:23.552Z,100.00
2022-11-02T17:00:47.655Z,100.00
2022-11-02T17:02:00.554Z,100.00
2022-11-02T17:04:24.725Z,100.00
2022-11-02T17:05:36.365Z,100.00
2022-11-02T17:06:38.827Z,100.00
2022-11-02T17:07:41.675Z,100.00
2022-11-02T17:08:44.258Z,100.00
2022-11-02T17:09:54.945Z,100.00
2022-11-02T17:12:23.859Z,100.00
2022-11-02T17:13:28.555Z,100.00
2022-11-02T17:14:41.657Z,100.00
2022-11-02T17:15:47.963Z,100.00
2022-11-02T17:16:50.681Z,100.00
2022-11-02T17:18:09.394Z,100.00
2022-11-02T17:19:29.447Z,100.00
2022-11-02T17:20:32.005Z,100.00
2022-11-02T17:21:34.573Z,100.00
2022-11-02T17:22:37.411Z,100.00